createdAt,value
2022-10-24T00:00:15.396Z,28.00
2022-10-24T00:02:45.155Z,28.20
2022-10-24T00:05:16.121Z,27.30
2022-10-24T00:07:45.607Z,26.13
2022-10-24T00:10:16.071Z,25.30
2022-10-24T00:12:46.818Z,25.48
2022-10-24T00:15:17.302Z,25.52
2022-10-24T00:17:46.544Z,25.48
2022-10-24T00:20:15.839Z,26.38
2022-10-24T00:22:45.375Z,27.00
2022-10-24T00:25:14.951Z,26.92
2022-10-24T00:27:44.147Z,27.60
2022-10-24T00:30:14.156Z,26.92
2022-10-24T00:32:43.710Z,26.48
2022-10-24T00:35:13.468Z,26.65
2022-10-24T00:37:43.999Z,24.63
2022-10-24T00:40:20.908Z,26.45
2022-10-24T00:42:51.508Z,28.00
2022-10-24T00:45:51.770Z,25.48
2022-10-24T00:48:26.353Z,26.65
2022-10-24T00:51:02.096Z,22.98
2022-10-24T00:53:35.514Z,25.63
2022-10-24T00:56:08.503Z,26.40
2022-10-24T00:58:39.958Z,23.77
2022-10-24T01:01:10.091Z,23.95
2022-10-24T01:03:39.728Z,23.50
2022-10-24T01:06:33.223Z,24.02
2022-10-24T01:09:37.336Z,24.05
2022-10-24T01:12:29.581Z,22.63
2022-10-24T01:15:40.857Z,23.55
2022-10-24T01:18:50.656Z,21.38
2022-10-24T01:21:43.386Z,19.65
2022-10-24T01:24:50.955Z,16.98
2022-10-24T01:27:54.585Z,16.58
2022-10-24T01:30:24.050Z,17.60
2022-10-24T01:33:16.987Z,14.52
2022-10-24T01:35:57.903Z,13.75
2022-10-24T01:38:42.548Z,13.98
2022-10-24T01:41:29.548Z,13.40
2022-10-24T01:44:09.751Z,14.93
2022-10-24T01:46:56.451Z,12.30
2022-10-24T01:49:32.544Z,12.63
2022-10-24T01:52:07.005Z,12.82
2022-10-24T01:54:38.673Z,12.77
2022-10-24T01:57:09.268Z,12.85
2022-10-24T01:59:42.740Z,11.85
2022-10-24T02:02:37.995Z,12.05
2022-10-24T02:05:34.023Z,12.57
2022-10-24T02:08:11.506Z,13.05
2022-10-24T02:10:55.345Z,12.95
2022-10-24T02:13:38.564Z,12.57
2022-10-24T02:16:08.427Z,13.98
2022-10-24T02:18:37.810Z,12.02
2022-10-24T02:21:43.489Z,13.07
2022-10-24T02:24:21.287Z,13.80
2022-10-24T02:27:07.899Z,11.40
2022-10-24T02:29:48.878Z,11.45
2022-10-24T02:32:28.063Z,16.42
2022-10-24T02:34:59.297Z,13.15
2022-10-24T02:37:33.816Z,13.77
2022-10-24T02:40:08.193Z,10.80
2022-10-24T02:42:40.367Z,14.32
2022-10-24T02:45:12.021Z,11.25
2022-10-24T02:47:45.258Z,13.30
2022-10-24T02:50:15.520Z,11.88
2022-10-24T02:52:46.453Z,12.38
2022-10-24T02:55:16.022Z,11.35
2022-10-24T02:57:45.184Z,12.85
2022-10-24T03:00:15.202Z,10.43
2022-10-24T03:02:44.642Z,12.48
2022-10-24T03:05:16.083Z,12.30
2022-10-24T03:07:45.360Z,9.95
2022-10-24T03:10:16.926Z,10.02
2022-10-24T03:12:47.553Z,12.55
2022-10-24T03:15:21.102Z,9.95
2022-10-24T03:17:53.286Z,11.18
2022-10-24T03:20:22.606Z,10.63
2022-10-24T03:22:52.436Z,9.90
2022-10-24T03:25:21.731Z,8.82
2022-10-24T03:27:50.925Z,10.10
2022-10-24T03:30:20.174Z,13.93
2022-10-24T03:32:49.396Z,10.13
2022-10-24T03:35:18.818Z,10.00
2022-10-24T03:37:47.992Z,8.98
2022-10-24T03:40:17.269Z,8.52
2022-10-24T03:42:46.680Z,8.98
2022-10-24T03:45:16.753Z,8.90
2022-10-24T03:47:46.267Z,10.02
2022-10-24T03:50:15.307Z,10.77
2022-10-24T03:52:44.835Z,7.93
2022-10-24T03:55:14.690Z,9.13
2022-10-24T03:57:44.126Z,10.77
2022-10-24T04:00:13.872Z,8.20
2022-10-24T04:02:43.924Z,10.02
2022-10-24T04:05:14.100Z,7.63
2022-10-24T04:07:43.299Z,10.02
2022-10-24T04:10:13.092Z,8.95
2022-10-24T04:12:42.437Z,8.13
2022-10-24T04:15:12.209Z,7.93
2022-10-24T04:17:41.424Z,7.03
2022-10-24T04:20:11.149Z,8.05
2022-10-24T04:22:40.457Z,7.43
2022-10-24T04:25:09.804Z,8.02
2022-10-24T04:27:41.589Z,7.95
2022-10-24T04:30:16.446Z,7.13
2022-10-24T04:32:46.640Z,7.63
2022-10-24T04:35:16.194Z,7.60
2022-10-24T04:37:45.823Z,7.60
2022-10-24T04:40:15.615Z,7.72
2022-10-24T04:42:45.296Z,6.97
2022-10-24T04:45:14.668Z,8.57
2022-10-24T04:47:44.272Z,6.72
2022-10-24T04:50:13.670Z,7.15
2022-10-24T04:52:42.826Z,6.43
2022-10-24T04:55:12.015Z,7.10
2022-10-24T04:57:41.498Z,7.70
2022-10-24T05:00:12.598Z,7.10
2022-10-24T05:02:41.905Z,7.30
2022-10-24T05:05:11.288Z,6.53
2022-10-24T05:07:40.896Z,8.25
2022-10-24T05:10:10.873Z,6.25
2022-10-24T05:12:40.293Z,7.00
2022-10-24T05:15:10.549Z,6.38
2022-10-24T05:17:40.070Z,6.20
2022-10-24T05:20:10.129Z,6.15
2022-10-24T05:22:39.539Z,5.80
2022-10-24T05:25:09.808Z,7.45
2022-10-24T05:27:39.036Z,8.27
2022-10-24T05:30:09.442Z,7.70
2022-10-24T05:32:39.770Z,6.35
2022-10-24T05:35:10.242Z,7.28
2022-10-24T05:37:40.194Z,6.70
2022-10-24T05:40:12.009Z,6.70
2022-10-24T05:42:42.258Z,6.10
2022-10-24T05:45:13.101Z,6.22
2022-10-24T05:47:42.349Z,6.18
2022-10-24T05:50:12.578Z,6.97
2022-10-24T05:52:46.918Z,6.45
2022-10-24T05:55:18.146Z,6.32
2022-10-24T05:57:48.195Z,7.43
2022-10-24T06:00:18.931Z,7.75
2022-10-24T06:02:48.514Z,9.32
2022-10-24T06:05:18.034Z,7.15
2022-10-24T06:07:48.197Z,7.88
2022-10-24T06:10:17.829Z,7.00
2022-10-24T06:12:47.468Z,6.65
2022-10-24T06:15:16.991Z,6.22
2022-10-24T06:17:47.303Z,7.20
2022-10-24T06:20:16.587Z,6.38
2022-10-24T06:22:48.702Z,6.80
2022-10-24T06:25:18.524Z,7.63
2022-10-24T06:27:47.778Z,6.72
2022-10-24T06:30:17.214Z,7.05
2022-10-24T06:32:46.965Z,7.70
2022-10-24T06:35:16.884Z,7.05
2022-10-24T06:37:48.157Z,7.18
2022-10-24T06:40:19.703Z,6.45
2022-10-24T06:42:49.105Z,7.25
2022-10-24T06:45:19.354Z,6.28
2022-10-24T06:47:51.799Z,6.68
2022-10-24T06:50:23.381Z,7.28
2022-10-24T06:52:52.547Z,6.50
2022-10-24T06:55:23.117Z,11.73
2022-10-24T06:57:54.131Z,7.55
2022-10-24T07:00:23.526Z,8.63
2022-10-24T07:02:52.762Z,5.75
2022-10-24T07:05:22.094Z,7.82
2022-10-24T07:07:51.187Z,6.65
2022-10-24T07:10:20.442Z,5.88
2022-10-24T07:12:49.592Z,7.93
2022-10-24T07:15:18.843Z,6.72
2022-10-24T07:17:48.284Z,8.43
2022-10-24T07:20:17.544Z,12.57
2022-10-24T07:22:46.927Z,7.10
2022-10-24T07:25:17.044Z,7.20
2022-10-24T07:27:46.177Z,14.45
2022-10-24T07:30:19.730Z,7.43
2022-10-24T07:32:49.658Z,11.98
2022-10-24T07:35:18.795Z,16.92
2022-10-24T07:37:49.096Z,11.68
2022-10-24T07:40:18.743Z,7.47
2022-10-24T07:42:49.421Z,7.35
2022-10-24T07:45:18.667Z,7.82
2022-10-24T07:47:47.972Z,10.15
2022-10-24T07:50:18.286Z,8.75
2022-10-24T07:52:47.401Z,13.45
2022-10-24T07:55:16.552Z,5.70
2022-10-24T07:57:45.915Z,7.20
2022-10-24T08:00:16.168Z,7.72
2022-10-24T08:02:45.374Z,8.32
2022-10-24T08:05:16.135Z,6.60
2022-10-24T08:07:55.838Z,8.40
2022-10-24T08:10:29.526Z,6.10
2022-10-24T08:12:58.790Z,6.32
2022-10-24T08:15:28.824Z,7.38
2022-10-24T08:17:58.140Z,9.18
2022-10-24T08:20:27.259Z,7.15
2022-10-24T08:22:56.444Z,8.10
2022-10-24T08:25:25.599Z,6.28
2022-10-24T08:27:54.693Z,7.68
2022-10-24T08:30:24.208Z,6.40
2022-10-24T08:32:53.623Z,7.28
2022-10-24T08:35:23.012Z,10.60
2022-10-24T08:37:53.426Z,6.90
2022-10-24T08:40:22.984Z,7.55
2022-10-24T08:42:52.491Z,7.30
2022-10-24T08:46:15.559Z,5.60
2022-10-24T08:48:55.340Z,6.43
2022-10-24T08:51:42.050Z,7.30
2022-10-24T08:54:21.523Z,8.85
2022-10-24T08:56:55.440Z,6.47
2022-10-24T08:59:27.602Z,14.80
2022-10-24T09:02:06.190Z,7.63
2022-10-24T09:05:37.609Z,6.05
2022-10-24T09:08:53.574Z,6.72
2022-10-24T09:11:49.262Z,6.57
2022-10-24T09:14:21.400Z,6.53
2022-10-24T09:17:13.886Z,9.35
2022-10-24T09:19:56.635Z,8.93
2022-10-24T09:22:33.453Z,11.60
2022-10-24T09:25:08.731Z,7.13
2022-10-24T09:27:42.144Z,6.03
2022-10-24T09:30:20.856Z,6.68
2022-10-24T09:32:50.402Z,7.22
2022-10-24T09:35:27.110Z,6.55
2022-10-24T09:38:00.495Z,8.32
2022-10-24T09:40:34.799Z,6.28
2022-10-24T09:43:19.059Z,10.48
2022-10-24T09:46:09.995Z,8.40
2022-10-24T09:48:59.373Z,7.82
2022-10-24T09:51:38.682Z,7.80
2022-10-24T09:54:19.432Z,8.40
2022-10-24T09:57:03.673Z,8.40
2022-10-24T09:59:49.889Z,7.32
2022-10-24T10:02:25.387Z,8.95
2022-10-24T10:05:07.737Z,11.00
2022-10-24T10:07:42.390Z,9.68
2022-10-24T10:10:20.487Z,9.20
2022-10-24T10:15:41.758Z,11.55
2022-10-24T10:18:41.140Z,12.90
2022-10-24T10:21:26.118Z,9.77
2022-10-24T10:23:58.429Z,8.43
2022-10-24T10:26:56.854Z,9.95
2022-10-24T10:29:26.454Z,13.07
2022-10-24T10:32:13.802Z,13.30
2022-10-24T10:34:51.158Z,13.43
2022-10-24T10:37:29.364Z,13.47
2022-10-24T10:40:16.462Z,14.32
2022-10-24T10:43:30.705Z,13.17
2022-10-24T10:46:26.398Z,14.02
2022-10-24T10:49:41.780Z,12.48
2022-10-24T10:52:46.306Z,12.25
2022-10-24T10:55:36.049Z,13.55
2022-10-24T10:58:29.731Z,12.95
2022-10-24T11:01:29.264Z,13.55
2022-10-24T11:04:43.283Z,11.50
2022-10-24T11:07:38.357Z,13.45
2022-10-24T11:10:14.325Z,13.07
2022-10-24T11:12:59.182Z,12.60
2022-10-24T11:15:41.778Z,12.10
2022-10-24T11:18:35.620Z,12.27
2022-10-24T11:21:11.919Z,12.75
2022-10-24T11:23:58.547Z,12.70
2022-10-24T11:27:04.232Z,12.43
2022-10-24T11:29:39.414Z,13.48
2022-10-24T11:32:52.168Z,13.07
2022-10-24T11:35:35.640Z,14.90
2022-10-24T11:38:14.270Z,20.67
2022-10-24T11:40:47.386Z,24.17
2022-10-24T11:43:41.834Z,24.35
2022-10-24T11:46:24.776Z,22.13
2022-10-24T11:49:21.553Z,22.17
2022-10-24T11:52:06.082Z,23.05
2022-10-24T11:55:05.131Z,20.40
2022-10-24T11:57:36.439Z,21.00
2022-10-24T12:00:07.122Z,19.90
2022-10-24T12:02:47.534Z,20.65
2022-10-24T12:05:25.058Z,18.88
2022-10-24T12:08:23.031Z,16.98
2022-10-24T12:13:44.757Z,18.10
2022-10-24T12:17:02.840Z,18.00
2022-10-24T12:19:33.329Z,18.20
2022-10-24T12:22:06.566Z,18.27
2022-10-24T12:24:42.603Z,19.05
2022-10-24T12:27:44.112Z,20.42
2022-10-24T12:30:22.828Z,38.70
2022-10-24T12:33:27.925Z,23.48
2022-10-24T12:35:58.233Z,19.30
2022-10-24T12:38:30.428Z,17.23
2022-10-24T12:41:12.668Z,17.88
2022-10-24T12:43:49.698Z,19.30
2022-10-24T12:46:23.105Z,19.85
2022-10-24T12:49:01.515Z,20.73
2022-10-24T12:51:38.641Z,20.48
2022-10-24T12:54:13.839Z,22.10
2022-10-24T12:56:54.660Z,22.08
2022-10-24T12:59:51.106Z,21.15
2022-10-24T13:02:27.965Z,20.70
2022-10-24T13:05:03.476Z,21.08
2022-10-24T13:07:57.923Z,19.75
2022-10-24T13:11:02.710Z,23.50
2022-10-24T13:13:48.078Z,24.38
2022-10-24T13:17:02.916Z,24.23
2022-10-24T13:19:33.377Z,24.83
2022-10-24T13:22:03.631Z,24.42
2022-10-24T13:24:41.567Z,23.65
2022-10-24T13:27:13.673Z,25.00
2022-10-24T13:29:44.991Z,25.33
2022-10-24T13:32:16.298Z,23.90
2022-10-24T13:34:53.772Z,24.98
2022-10-24T13:37:27.443Z,24.80
2022-10-24T13:40:32.006Z,24.63
2022-10-24T13:43:18.289Z,24.58
2022-10-24T13:46:13.225Z,24.05
2022-10-24T13:48:50.361Z,25.42
2022-10-24T13:51:37.880Z,26.58
2022-10-24T13:54:33.387Z,24.02
2022-10-24T13:57:02.685Z,25.02
2022-10-24T13:59:40.532Z,25.25
2022-10-24T14:02:26.197Z,25.35
2022-10-24T14:04:58.853Z,24.90
2022-10-24T14:07:34.617Z,26.42
2022-10-24T14:10:13.742Z,25.10
2022-10-24T14:12:45.824Z,24.75
2022-10-24T14:15:26.176Z,25.35
2022-10-24T14:18:03.986Z,23.77
2022-10-24T14:20:38.793Z,24.42
2022-10-24T14:23:30.526Z,23.38
2022-10-24T14:26:25.041Z,22.98
2022-10-24T14:29:01.947Z,23.83
2022-10-24T14:31:38.944Z,22.58
2022-10-24T14:34:22.296Z,21.15
2022-10-24T14:36:55.695Z,22.45
2022-10-24T14:39:25.434Z,21.92
2022-10-24T14:41:55.956Z,22.65
2022-10-24T14:44:25.582Z,21.35
2022-10-24T14:47:24.488Z,25.25
2022-10-24T14:49:54.558Z,21.67
2022-10-24T14:52:30.900Z,21.95
2022-10-24T14:55:07.484Z,23.42
2022-10-24T14:57:39.433Z,24.23
2022-10-24T15:00:26.307Z,23.25
2022-10-24T15:02:59.590Z,23.08
2022-10-24T15:05:33.910Z,23.40
2022-10-24T15:08:27.033Z,23.70
2022-10-24T15:11:27.204Z,23.13
2022-10-24T15:14:06.442Z,22.58
2022-10-24T15:16:40.670Z,23.98
2022-10-24T15:19:19.146Z,24.02
2022-10-24T15:21:49.364Z,22.27
2022-10-24T15:24:27.899Z,23.98
2022-10-24T15:27:13.614Z,22.95
2022-10-24T15:29:42.950Z,21.48
2022-10-24T15:32:12.828Z,22.25
2022-10-24T15:34:41.898Z,21.52
2022-10-24T15:37:25.725Z,21.85
2022-10-24T15:39:56.531Z,22.58
2022-10-24T15:42:26.897Z,25.60
2022-10-24T15:44:55.951Z,25.10
2022-10-24T15:47:25.476Z,28.55
2022-10-24T15:49:54.623Z,32.90
2022-10-24T15:52:23.693Z,38.83
2022-10-24T15:54:52.702Z,32.63
2022-10-24T15:57:21.804Z,32.40
2022-10-24T15:59:51.227Z,32.97
2022-10-24T16:02:25.993Z,31.08
2022-10-24T16:04:55.087Z,29.67
2022-10-24T16:07:24.148Z,31.80
2022-10-24T16:09:53.296Z,30.42
2022-10-24T16:12:22.447Z,30.70
2022-10-24T16:14:51.519Z,31.90
2022-10-24T16:17:20.554Z,31.13
2022-10-24T16:19:49.656Z,32.90
2022-10-24T16:22:18.812Z,31.90
2022-10-24T16:24:47.857Z,31.45
2022-10-24T16:27:16.962Z,30.95
2022-10-24T16:29:45.989Z,30.40
2022-10-24T16:32:15.031Z,28.95
2022-10-24T16:34:46.027Z,26.50
2022-10-24T16:37:15.124Z,26.63
2022-10-24T16:39:44.195Z,25.67
2022-10-24T16:42:13.302Z,25.52
2022-10-24T16:44:42.382Z,24.25
2022-10-24T16:47:11.635Z,23.83
2022-10-24T16:49:40.757Z,22.02
2022-10-24T16:52:09.988Z,20.58
2022-10-24T16:54:39.559Z,21.40
2022-10-24T16:57:08.874Z,20.23
2022-10-24T16:59:37.989Z,19.58
2022-10-24T17:02:07.214Z,19.35
2022-10-24T17:04:36.424Z,19.02
2022-10-24T17:07:05.530Z,20.20
2022-10-24T17:09:34.580Z,21.23
2022-10-24T17:12:03.784Z,19.73
2022-10-24T17:14:35.479Z,19.17
2022-10-24T17:17:05.965Z,21.15
2022-10-24T17:19:36.729Z,23.02
2022-10-24T17:22:05.920Z,21.35
2022-10-24T17:24:35.770Z,20.27
2022-10-24T17:27:04.986Z,19.60
2022-10-24T17:29:35.792Z,20.95
2022-10-24T17:32:06.742Z,21.00
2022-10-24T17:34:36.333Z,21.38
2022-10-24T17:37:32.315Z,21.08
2022-10-24T17:40:09.196Z,21.33
2022-10-24T17:42:38.705Z,22.08
2022-10-24T17:45:26.668Z,21.50
2022-10-24T17:47:56.545Z,22.25
2022-10-24T17:50:25.653Z,24.10
2022-10-24T17:52:54.693Z,21.88
2022-10-24T17:55:45.178Z,24.00
2022-10-24T17:58:16.498Z,22.50
2022-10-24T18:00:46.766Z,21.58
2022-10-24T18:03:16.334Z,22.50
2022-10-24T18:05:45.522Z,22.48
2022-10-24T18:08:17.313Z,21.65
2022-10-24T18:10:46.452Z,23.70
2022-10-24T18:13:15.698Z,23.13
2022-10-24T18:15:44.899Z,21.80
2022-10-24T18:18:14.038Z,22.55
2022-10-24T18:20:43.175Z,22.15
2022-10-24T18:23:12.581Z,24.50
2022-10-24T18:25:41.739Z,23.25
2022-10-24T18:28:10.943Z,21.83
2022-10-24T18:30:40.300Z,22.55
2022-10-24T18:33:09.419Z,21.52
2022-10-24T18:35:38.674Z,23.65
2022-10-24T18:38:07.833Z,23.55
2022-10-24T18:40:38.902Z,23.52
2022-10-24T18:43:08.515Z,23.70
2022-10-24T18:45:38.491Z,23.27
2022-10-24T18:48:08.252Z,23.35
2022-10-24T18:50:38.016Z,22.02
2022-10-24T18:53:21.489Z,22.67
2022-10-24T18:55:52.369Z,22.13
2022-10-24T18:58:22.190Z,22.75
2022-10-24T19:00:54.803Z,22.70
2022-10-24T19:03:38.398Z,22.20
2022-10-24T19:06:26.726Z,23.40
2022-10-24T19:11:25.667Z,23.83
2022-10-24T19:13:55.015Z,23.48
2022-10-24T19:16:30.311Z,22.20
2022-10-24T19:19:03.546Z,23.33
2022-10-24T19:21:32.706Z,23.48
2022-10-24T19:24:02.769Z,26.70
2022-10-24T19:26:31.998Z,24.40
2022-10-24T19:29:03.625Z,24.33
2022-10-24T19:31:34.967Z,24.45
2022-10-24T19:34:04.422Z,23.65
2022-10-24T19:36:34.977Z,24.67
2022-10-24T19:39:04.353Z,24.17
2022-10-24T19:41:34.090Z,24.33
2022-10-24T19:44:03.583Z,27.48
2022-10-24T19:46:32.805Z,24.52
2022-10-24T19:49:01.956Z,24.45
2022-10-24T19:51:31.153Z,24.17
2022-10-24T19:54:00.280Z,24.05
2022-10-24T19:56:32.310Z,24.10
2022-10-24T19:59:02.425Z,24.17
2022-10-24T20:01:32.445Z,24.80
2022-10-24T20:04:02.926Z,23.52
2022-10-24T20:06:32.367Z,28.35
2022-10-24T20:09:01.584Z,26.27
2022-10-24T20:11:31.069Z,25.23
2022-10-24T20:14:00.249Z,24.98
2022-10-24T20:16:29.424Z,24.92
2022-10-24T20:18:58.614Z,25.52
2022-10-24T20:21:28.091Z,25.25
2022-10-24T20:23:57.221Z,23.92
2022-10-24T20:26:28.438Z,26.48
2022-10-24T20:28:59.532Z,24.60
2022-10-24T20:31:36.209Z,26.73
2022-10-24T20:34:10.698Z,23.85
2022-10-24T20:36:45.407Z,25.65
2022-10-24T20:39:17.050Z,26.40
2022-10-24T20:41:48.062Z,26.27
2022-10-24T20:44:19.569Z,27.48
2022-10-24T20:46:48.683Z,27.23
2022-10-24T20:49:17.830Z,27.23
2022-10-24T20:51:47.047Z,28.50
2022-10-24T20:54:16.182Z,28.45
2022-10-24T20:56:45.426Z,30.00
2022-10-24T20:59:17.676Z,33.65
2022-10-24T21:01:47.000Z,49.50
2022-10-24T21:04:18.511Z,43.80
2022-10-24T21:06:50.138Z,39.28
2022-10-24T21:09:19.419Z,34.97
2022-10-24T21:11:49.580Z,35.78
2022-10-24T21:14:21.569Z,37.38
2022-10-24T21:16:50.732Z,35.78
2022-10-24T21:19:19.873Z,33.95
2022-10-24T21:21:49.151Z,32.22
2022-10-24T21:24:19.857Z,33.45
2022-10-24T21:26:48.962Z,31.05
2022-10-24T21:29:34.341Z,31.98
2022-10-24T21:32:03.996Z,30.73
2022-10-24T21:34:34.599Z,31.98
2022-10-24T21:37:05.835Z,40.67
2022-10-24T21:39:35.002Z,32.10
2022-10-24T21:42:06.089Z,32.25
2022-10-24T21:44:36.535Z,31.58
2022-10-24T21:47:05.825Z,31.25
2022-10-24T21:49:34.948Z,29.45
2022-10-24T21:52:04.228Z,30.80
2022-10-24T21:54:33.546Z,31.45
2022-10-24T21:57:02.654Z,30.77
2022-10-24T21:59:31.831Z,32.00
2022-10-24T22:02:01.110Z,32.67
2022-10-24T22:04:30.313Z,35.17
2022-10-24T22:06:59.510Z,36.78
2022-10-24T22:09:29.513Z,37.28
2022-10-24T22:12:01.675Z,37.05
2022-10-24T22:14:30.883Z,35.50
2022-10-24T22:17:00.000Z,32.75
2022-10-24T22:19:29.199Z,34.75
2022-10-24T22:21:58.357Z,34.35
2022-10-24T22:24:27.688Z,34.42
2022-10-24T22:26:56.928Z,35.20
2022-10-24T22:29:26.656Z,36.08
2022-10-24T22:31:56.647Z,39.30
2022-10-24T22:34:27.954Z,37.85
2022-10-24T22:37:26.036Z,37.40
2022-10-24T22:39:55.679Z,35.05
2022-10-24T22:42:25.250Z,35.58
2022-10-24T22:44:55.036Z,39.95
2022-10-24T22:47:35.790Z,35.58
2022-10-24T22:50:31.545Z,35.72
2022-10-24T22:53:01.282Z,35.40
2022-10-24T22:55:44.873Z,35.58
2022-10-24T22:58:14.560Z,34.95
2022-10-24T23:00:44.492Z,36.90
2022-10-24T23:03:44.318Z,38.70
2022-10-24T23:06:45.270Z,38.05
2022-10-24T23:09:14.290Z,38.75
2022-10-24T23:11:43.920Z,40.90
2022-10-24T23:14:13.999Z,37.50
2022-10-24T23:16:58.881Z,36.15
2022-10-24T23:19:32.113Z,35.33
2022-10-24T23:22:28.868Z,36.78
2022-10-24T23:25:02.821Z,36.78
2022-10-24T23:27:45.203Z,35.78
2022-10-24T23:30:24.511Z,34.17
2022-10-24T23:32:54.307Z,36.72
2022-10-24T23:35:25.015Z,36.03
2022-10-24T23:37:55.616Z,36.80
2022-10-24T23:40:36.888Z,35.90
2022-10-24T23:43:07.007Z,35.45
2022-10-24T23:46:00.327Z,35.15
2022-10-24T23:49:01.467Z,33.85
2022-10-24T23:52:14.800Z,34.33
2022-10-24T23:54:44.383Z,33.97
2022-10-24T23:57:19.580Z,34.80
2022-10-24T23:59:49.115Z,34.30
